Time;durP1;ratioP1;P1;durP2;ratioP2;P2;SDS_P1;SDS_P2;PMS_P1;PMS_P2;Temp;Humidity;BMP_temperature;BMP_pressure;BME280_temperature;BME280_humidity;BME280_pressure;Samples;Min_cycle;Max_cycle;Signal;HPM_P1;HPM_P2
2022/01/14 00:02:18;;;;;;;19.50;14.40;;;;;;;;;;5045870;28;20474;-49
2022/01/14 00:04:44;;;;;;;22.00;15.63;;;;;;;;;;5035989;28;20025;-54
2022/01/14 00:07:10;;;;;;;19.47;15.63;;;;;;;;;;5035490;28;20052;-54
2022/01/14 00:09:38;;;;;;;21.37;14.80;;;;;;;;;;5034880;28;20036;-52
2022/01/14 00:12:10;;;;;;;22.00;16.90;;;;;;;;;;5035168;28;20067;-53
2022/01/14 00:14:40;;;;;;;17.97;14.90;;;;;;;;;;5035273;28;20116;-54
2022/01/14 00:17:10;;;;;;;21.03;14.77;;;;;;;;;;5035349;28;20029;-49
2022/01/14 00:19:36;;;;;;;22.02;16.17;;;;;;;;;;5034777;28;20355;-54
2022/01/14 00:22:06;;;;;;;22.33;17.67;;;;;;;;;;5035126;28;20112;-52
2022/01/14 00:31:41;;;;;;;24.13;17.87;;;;;;;;;;5035155;28;20105;-53
2022/01/14 00:33:06;;;;;;;18.73;16.07;;;;;;;;;;5042288;28;20056;-54
2022/01/14 00:35:32;;;;;;;19.83;17.23;;;;;;;;;;5054998;28;20060;-53
2022/01/14 00:37:58;;;;;;;20.17;16.93;;;;;;;;;;5054390;28;20064;-54
2022/01/14 00:40:24;;;;;;;20.40;16.77;;;;;;;;;;5055084;28;20186;-53
2022/01/14 00:42:51;;;;;;;19.03;16.50;;;;;;;;;;5054528;28;20065;-54
2022/01/14 00:45:17;;;;;;;19.87;14.57;;;;;;;;;;5054751;28;20052;-55
2022/01/14 00:47:43;;;;;;;29.97;17.77;;;;;;;;;;5054195;28;20021;-53
2022/01/14 00:50:11;;;;;;;24.23;15.73;;;;;;;;;;5052881;28;20120;-55
2022/01/14 00:52:38;;;;;;;16.87;13.47;;;;;;;;;;5054642;28;20032;-55
2022/01/14 00:55:05;;;;;;;20.73;15.93;;;;;;;;;;5054786;28;20049;-53
2022/01/14 01:00:16;;;;;;;16.47;14.77;;;;;;;;;;5054153;28;20094;-54
2022/01/14 01:02:43;;;;;;;16.93;14.53;;;;;;;;;;5041953;28;20109;-51
2022/01/14 01:05:09;;;;;;;20.47;15.70;;;;;;;;;;5034595;28;20053;-50
2022/01/14 01:07:38;;;;;;;16.57;14.03;;;;;;;;;;5034204;28;20455;-53
2022/01/14 01:10:04;;;;;;;17.87;15.43;;;;;;;;;;5033714;28;20029;-51
2022/01/14 01:12:47;;;;;;;20.17;16.37;;;;;;;;;;5034006;28;20037;-53
2022/01/14 01:15:15;;;;;;;21.60;16.80;;;;;;;;;;5034286;28;20029;-54
2022/01/14 01:17:42;;;;;;;20.10;16.10;;;;;;;;;;5034417;28;20029;-49
2022/01/14 01:20:18;;;;;;;21.97;16.13;;;;;;;;;;5033972;28;20056;-51
2022/01/14 01:22:45;;;;;;;18.23;15.80;;;;;;;;;;5034009;28;20451;-54
2022/01/14 01:25:12;;;;;;;22.50;16.90;;;;;;;;;;5033979;28;20033;-53
2022/01/14 01:27:41;;;;;;;17.90;14.67;;;;;;;;;;5034146;28;20447;-53
2022/01/14 01:30:14;;;;;;;20.83;16.37;;;;;;;;;;5033524;28;20072;-54
2022/01/14 01:32:41;;;;;;;18.53;15.00;;;;;;;;;;5039702;28;20032;-55
2022/01/14 01:35:07;;;;;;;20.70;15.00;;;;;;;;;;5054064;28;20037;-51
2022/01/14 01:37:33;;;;;;;25.37;15.57;;;;;;;;;;5053618;28;20102;-50
2022/01/14 01:39:59;;;;;;;19.50;15.27;;;;;;;;;;5052976;28;20071;-52
2022/01/14 01:42:28;;;;;;;20.67;15.00;;;;;;;;;;5053970;28;20056;-54
2022/01/14 01:44:54;;;;;;;21.43;14.57;;;;;;;;;;5053521;28;20425;-53
2022/01/14 01:47:22;;;;;;;15.50;13.90;;;;;;;;;;5053672;28;20091;-52
2022/01/14 01:49:48;;;;;;;18.97;15.40;;;;;;;;;;5052961;28;20029;-50
2022/01/14 01:52:14;;;;;;;22.83;16.27;;;;;;;;;;5053240;28;20025;-54
2022/01/14 01:54:40;;;;;;;18.87;15.00;;;;;;;;;;5053856;28;20032;-54
2022/01/14 01:57:06;;;;;;;16.73;14.87;;;;;;;;;;5053543;28;20031;-51
2022/01/14 01:59:32;;;;;;;22.37;17.27;;;;;;;;;;5052325;28;20036;-54
2022/01/14 02:01:59;;;;;;;20.47;15.67;;;;;;;;;;5045804;28;20028;-53
2022/01/14 02:04:26;;;;;;;19.07;15.43;;;;;;;;;;5033351;28;20025;-54
2022/01/14 02:06:54;;;;;;;24.50;18.13;;;;;;;;;;5033005;28;20029;-55
2022/01/14 02:09:20;;;;;;;21.17;15.43;;;;;;;;;;5032787;28;20053;-51
2022/01/14 02:11:46;;;;;;;24.17;16.50;;;;;;;;;;5033126;28;20017;-53
2022/01/14 02:14:27;;;;;;;21.50;15.80;;;;;;;;;;5033022;28;20483;-52
2022/01/14 02:19:29;;;;;;;18.27;15.20;;;;;;;;;;5032333;28;20052;-53
2022/01/14 02:22:14;;;;;;;20.83;16.48;;;;;;;;;;5032971;28;20057;-55
2022/01/14 02:27:08;;;;;;;18.13;14.90;;;;;;;;;;5032841;28;20116;-52
2022/01/14 02:29:34;;;;;;;21.63;15.80;;;;;;;;;;5032235;28;20474;-53
2022/01/14 02:32:01;;;;;;;20.90;17.03;;;;;;;;;;5032641;28;20075;-50
2022/01/14 02:34:27;;;;;;;18.37;14.10;;;;;;;;;;5052836;28;20084;-49
2022/01/14 02:36:53;;;;;;;19.20;13.33;;;;;;;;;;5052748;28;20500;-49
2022/01/14 02:39:19;;;;;;;20.00;14.83;;;;;;;;;;5052003;28;20388;-49
2022/01/14 02:41:46;;;;;;;20.37;16.00;;;;;;;;;;5052536;28;20036;-52
2022/01/14 02:44:19;;;;;;;16.93;14.03;;;;;;;;;;5052558;28;20017;-54
2022/01/14 02:47:05;;;;;;;20.53;17.07;;;;;;;;;;5052522;28;20029;-54
2022/01/14 02:49:34;;;;;;;18.67;13.83;;;;;;;;;;5051965;28;20075;-54
2022/01/14 02:52:02;;;;;;;21.83;17.10;;;;;;;;;;5052186;28;20097;-54
2022/01/14 02:54:33;;;;;;;20.00;16.17;;;;;;;;;;5052327;28;20065;-51
2022/01/14 02:57:01;;;;;;;23.48;17.65;;;;;;;;;;5052203;28;20036;-53
2022/01/14 02:59:29;;;;;;;19.83;15.57;;;;;;;;;;5051506;28;20379;-54
2022/01/14 03:01:55;;;;;;;21.47;15.40;;;;;;;;;;5045965;28;20019;-53
2022/01/14 03:04:22;;;;;;;21.70;17.80;;;;;;;;;;5032221;28;20018;-50
2022/01/14 03:06:48;;;;;;;18.03;14.73;;;;;;;;;;5032447;28;20045;-53
2022/01/14 03:09:15;;;;;;;18.47;13.53;;;;;;;;;;5031494;28;20076;-52
2022/01/14 03:11:44;;;;;;;20.63;17.00;;;;;;;;;;5032139;28;20166;-53
2022/01/14 03:14:10;;;;;;;23.83;16.47;;;;;;;;;;5032207;28;20117;-53
2022/01/14 03:16:40;;;;;;;21.40;16.07;;;;;;;;;;5032449;28;20025;-53
2022/01/14 03:19:11;;;;;;;19.73;15.23;;;;;;;;;;5031428;28;20029;-50
2022/01/14 03:21:40;;;;;;;20.40;17.67;;;;;;;;;;5032026;28;20038;-54
2022/01/14 03:26:48;;;;;;;22.40;16.70;;;;;;;;;;5032431;28;20490;-54
2022/01/14 03:29:16;;;;;;;17.67;15.07;;;;;;;;;;5031401;28;20028;-53
2022/01/14 03:31:42;;;;;;;20.57;16.80;;;;;;;;;;5031972;28;20148;-53
2022/01/14 03:34:08;;;;;;;23.07;17.47;;;;;;;;;;5049640;28;20489;-52
2022/01/14 03:36:34;;;;;;;18.07;16.27;;;;;;;;;;5051830;28;20025;-55
2022/01/14 03:39:00;;;;;;;17.60;14.47;;;;;;;;;;5051293;28;20033;-52
2022/01/14 03:41:26;;;;;;;21.90;17.10;;;;;;;;;;5052065;28;20044;-52
2022/01/14 03:43:52;;;;;;;19.33;15.47;;;;;;;;;;5052135;28;20033;-54
2022/01/14 03:46:18;;;;;;;19.37;15.00;;;;;;;;;;5051861;28;20025;-54
2022/01/14 03:48:44;;;;;;;19.57;15.73;;;;;;;;;;5051047;28;20037;-52
2022/01/14 03:51:12;;;;;;;24.37;17.23;;;;;;;;;;5051617;28;20052;-51
2022/01/14 03:53:38;;;;;;;16.47;14.67;;;;;;;;;;5051735;28;20033;-54
2022/01/14 03:56:04;;;;;;;17.97;15.13;;;;;;;;;;5051798;28;20029;-53
2022/01/14 03:58:30;;;;;;;21.03;15.13;;;;;;;;;;5051258;28;20524;-53
2022/01/14 04:00:56;;;;;;;26.53;19.60;;;;;;;;;;5051656;28;20040;-53
2022/01/14 04:03:22;;;;;;;18.47;14.97;;;;;;;;;;5033395;28;20025;-55
2022/01/14 04:05:48;;;;;;;16.47;13.90;;;;;;;;;;5031572;28;20468;-52
2022/01/14 04:08:14;;;;;;;24.57;16.73;;;;;;;;;;5031071;28;20378;-52
2022/01/14 04:10:40;;;;;;;17.90;15.17;;;;;;;;;;5031681;28;20029;-54
2022/01/14 04:13:15;;;;;;;22.73;16.80;;;;;;;;;;5031559;28;20091;-52
2022/01/14 04:15:43;;;;;;;21.43;13.07;;;;;;;;;;5031701;28;20059;-53
2022/01/14 04:18:09;;;;;;;20.07;15.10;;;;;;;;;;5031206;28;20034;-50
2022/01/14 04:20:36;;;;;;;17.83;15.60;;;;;;;;;;5031814;28;20404;-51
2022/01/14 04:23:02;;;;;;;16.87;14.33;;;;;;;;;;5031538;28;20022;-53
2022/01/14 04:25:28;;;;;;;17.03;14.97;;;;;;;;;;5032335;28;20041;-50
2022/01/14 04:27:54;;;;;;;19.13;14.27;;;;;;;;;;5034625;28;20025;-54
2022/01/14 04:30:21;;;;;;;18.23;13.30;;;;;;;;;;5031768;28;20471;-51
2022/01/14 04:32:47;;;;;;;17.20;13.60;;;;;;;;;;5040488;28;20530;-49
2022/01/14 04:35:13;;;;;;;19.80;14.07;;;;;;;;;;5054408;28;20121;-52
2022/01/14 04:37:39;;;;;;;20.03;14.90;;;;;;;;;;5055037;28;20044;-48
2022/01/14 04:40:05;;;;;;;22.77;16.13;;;;;;;;;;5054580;28;20089;-50
2022/01/14 04:42:32;;;;;;;24.27;16.40;;;;;;;;;;5053583;28;20029;-48
2022/01/14 04:44:58;;;;;;;23.20;16.43;;;;;;;;;;5053808;28;20025;-53
2022/01/14 04:47:44;;;;;;;19.43;14.60;;;;;;;;;;5054125;28;20036;-49
2022/01/14 04:50:10;;;;;;;20.57;17.03;;;;;;;;;;5054062;28;20511;-50
2022/01/14 04:52:36;;;;;;;17.33;14.30;;;;;;;;;;5054317;28;20095;-53
2022/01/14 04:55:02;;;;;;;18.03;15.00;;;;;;;;;;5053874;28;20024;-52
2022/01/14 04:57:28;;;;;;;19.07;15.27;;;;;;;;;;5052227;28;20368;-49
2022/01/14 04:59:54;;;;;;;19.77;15.93;;;;;;;;;;5053408;28;20086;-52
2022/01/14 05:02:20;;;;;;;17.90;15.47;;;;;;;;;;5053210;28;20036;-51
2022/01/14 05:04:47;;;;;;;20.37;16.27;;;;;;;;;;5054177;28;20033;-49
2022/01/14 05:07:23;;;;;;;26.17;16.40;;;;;;;;;;5054256;28;20415;-55
2022/01/14 05:09:58;;;;;;;23.23;15.40;;;;;;;;;;5052072;28;20029;-52
2022/01/14 05:12:24;;;;;;;14.57;12.93;;;;;;;;;;5053514;28;20390;-54
2022/01/14 05:14:50;;;;;;;18.37;14.70;;;;;;;;;;5053771;28;20033;-49
2022/01/14 05:17:16;;;;;;;19.57;13.57;;;;;;;;;;5053736;28;20463;-50
2022/01/14 05:19:42;;;;;;;18.53;15.03;;;;;;;;;;5052967;28;20709;-50
2022/01/14 05:22:08;;;;;;;19.43;14.30;;;;;;;;;;5053471;28;20125;-49
2022/01/14 05:24:34;;;;;;;18.53;16.70;;;;;;;;;;5053573;28;20135;-52
2022/01/14 05:27:00;;;;;;;18.20;14.43;;;;;;;;;;5053370;28;20119;-52
2022/01/14 05:29:26;;;;;;;18.20;14.47;;;;;;;;;;5052246;28;20033;-52
2022/01/14 05:32:01;;;;;;;19.47;13.47;;;;;;;;;;5053606;28;20072;-51
2022/01/14 05:34:27;;;;;;;18.13;13.77;;;;;;;;;;5051018;28;20041;-55
2022/01/14 05:36:53;;;;;;;15.90;13.70;;;;;;;;;;5052640;28;20520;-55
2022/01/14 05:39:20;;;;;;;17.57;14.13;;;;;;;;;;5051270;28;20025;-54
2022/01/14 05:41:46;;;;;;;19.40;14.30;;;;;;;;;;5053559;28;20063;-52
2022/01/14 05:44:12;;;;;;;18.67;14.00;;;;;;;;;;5052916;28;20024;-53
2022/01/14 05:46:39;;;;;;;16.30;14.40;;;;;;;;;;5052898;28;20033;-53
2022/01/14 05:49:05;;;;;;;16.27;12.23;;;;;;;;;;5052198;28;20051;-49
2022/01/14 05:51:31;;;;;;;15.00;13.03;;;;;;;;;;5052683;28;20040;-54
2022/01/14 05:53:57;;;;;;;16.73;12.93;;;;;;;;;;5052964;28;20029;-55
2022/01/14 05:56:23;;;;;;;17.87;13.07;;;;;;;;;;5052794;28;20474;-55
2022/01/14 05:58:49;;;;;;;17.13;12.67;;;;;;;;;;5052439;28;20029;-54
2022/01/14 06:01:15;;;;;;;16.00;13.07;;;;;;;;;;5052322;28;20029;-51
2022/01/14 06:03:40;;;;;;;17.87;14.80;;;;;;;;;;5052153;28;20033;-53
2022/01/14 06:06:06;;;;;;;16.77;12.10;;;;;;;;;;5052511;28;20527;-54
2022/01/14 06:08:32;;;;;;;14.83;11.87;;;;;;;;;;5051759;28;20052;-53
2022/01/14 06:10:59;;;;;;;14.77;12.43;;;;;;;;;;5052801;28;20031;-51
2022/01/14 06:13:25;;;;;;;13.50;12.10;;;;;;;;;;5053169;28;20040;-52
2022/01/14 06:15:51;;;;;;;20.20;14.77;;;;;;;;;;5053060;28;20108;-53
2022/01/14 06:18:17;;;;;;;17.00;14.77;;;;;;;;;;5052028;28;20108;-55
2022/01/14 06:20:43;;;;;;;18.70;15.07;;;;;;;;;;5052763;28;20033;-50
2022/01/14 06:23:09;;;;;;;17.97;15.30;;;;;;;;;;5052804;28;20124;-55
2022/01/14 06:25:35;;;;;;;16.10;14.47;;;;;;;;;;5053012;28;20029;-50
2022/01/14 06:28:01;;;;;;;18.87;14.97;;;;;;;;;;5052283;28;20123;-52
2022/01/14 06:30:27;;;;;;;22.27;16.37;;;;;;;;;;5052635;28;20111;-53
2022/01/14 06:32:53;;;;;;;19.67;14.37;;;;;;;;;;5052750;28;20387;-53
2022/01/14 06:35:19;;;;;;;15.70;13.77;;;;;;;;;;5052746;28;20368;-54
2022/01/14 06:37:45;;;;;;;19.50;17.10;;;;;;;;;;5052570;28;20116;-55
2022/01/14 06:40:12;;;;;;;15.67;14.00;;;;;;;;;;5052376;28;20112;-54
2022/01/14 06:42:38;;;;;;;19.90;15.57;;;;;;;;;;5052383;28;20416;-53
2022/01/14 06:45:04;;;;;;;15.40;13.90;;;;;;;;;;5051698;28;20104;-54
2022/01/14 06:47:30;;;;;;;16.67;13.33;;;;;;;;;;5052299;28;20029;-52
2022/01/14 06:49:56;;;;;;;17.93;15.33;;;;;;;;;;5051182;28;20071;-55
2022/01/14 06:52:23;;;;;;;20.37;15.47;;;;;;;;;;5051633;28;20116;-52
2022/01/14 06:54:48;;;;;;;24.27;16.10;;;;;;;;;;5052403;28;20033;-55
2022/01/14 06:57:15;;;;;;;15.83;13.23;;;;;;;;;;5052427;28;20021;-54
2022/01/14 06:59:41;;;;;;;19.77;14.20;;;;;;;;;;5031415;28;20372;-51
2022/01/14 07:02:08;;;;;;;19.50;13.40;;;;;;;;;;5042943;28;20036;-51
2022/01/14 07:04:34;;;;;;;17.50;12.97;;;;;;;;;;5052198;28;20120;-55
2022/01/14 07:07:00;;;;;;;22.67;14.03;;;;;;;;;;5051994;28;20036;-53
2022/01/14 07:09:26;;;;;;;15.70;14.07;;;;;;;;;;5051869;28;20040;-53
2022/01/14 07:11:56;;;;;;;19.40;14.50;;;;;;;;;;5051668;28;20037;-51
2022/01/14 07:14:22;;;;;;;17.20;14.05;;;;;;;;;;5052175;28;20032;-55
2022/01/14 07:16:48;;;;;;;16.90;13.70;;;;;;;;;;5052109;28;20029;-54
2022/01/14 07:19:16;;;;;;;26.83;14.23;;;;;;;;;;5051350;28;20033;-54
2022/01/14 07:21:42;;;;;;;15.37;12.83;;;;;;;;;;5051707;28;20545;-53
2022/01/14 07:24:10;;;;;;;15.67;14.07;;;;;;;;;;5052289;28;20108;-54
2022/01/14 07:26:36;;;;;;;20.67;15.43;;;;;;;;;;5051840;28;20037;-54
2022/01/14 07:29:02;;;;;;;19.03;13.97;;;;;;;;;;5051548;28;20029;-51
2022/01/14 07:31:28;;;;;;;21.40;13.13;;;;;;;;;;5052042;28;20485;-53
2022/01/14 07:33:54;;;;;;;17.90;12.40;;;;;;;;;;5051566;28;20051;-50
2022/01/14 07:36:21;;;;;;;17.40;12.90;;;;;;;;;;5052167;28;20615;-55
2022/01/14 07:38:46;;;;;;;12.47;9.77;;;;;;;;;;5050428;28;20068;-54
2022/01/14 07:41:12;;;;;;;19.00;14.53;;;;;;;;;;5051748;28;20490;-50
2022/01/14 07:43:38;;;;;;;18.23;11.20;;;;;;;;;;5052045;28;20367;-52
2022/01/14 07:46:05;;;;;;;19.77;13.33;;;;;;;;;;5051827;28;20064;-49
2022/01/14 07:48:32;;;;;;;12.40;11.10;;;;;;;;;;5051111;28;20033;-49
2022/01/14 07:50:58;;;;;;;14.13;12.00;;;;;;;;;;5052114;28;20086;-52
2022/01/14 07:53:24;;;;;;;11.07;9.83;;;;;;;;;;5051244;28;20040;-51
2022/01/14 07:55:50;;;;;;;12.83;9.50;;;;;;;;;;5051672;28;20398;-54
2022/01/14 07:58:16;;;;;;;12.03;10.20;;;;;;;;;;5051194;28;20036;-55
2022/01/14 08:00:44;;;;;;;11.30;8.50;;;;;;;;;;5052614;28;20044;-51
2022/01/14 08:03:10;;;;;;;13.60;10.40;;;;;;;;;;5038847;28;20057;-53
2022/01/14 08:05:36;;;;;;;12.30;9.57;;;;;;;;;;5035746;28;20375;-52
2022/01/14 08:08:07;;;;;;;12.63;8.87;;;;;;;;;;5047281;28;20040;-54
2022/01/14 08:10:33;;;;;;;13.33;11.20;;;;;;;;;;5055627;28;20383;-54
2022/01/14 08:12:59;;;;;;;11.30;10.20;;;;;;;;;;5055049;28;20040;-52
2022/01/14 08:15:25;;;;;;;11.43;10.30;;;;;;;;;;5055392;28;20021;-52
2022/01/14 08:17:53;;;;;;;15.10;11.93;;;;;;;;;;5054602;28;20203;-54
2022/01/14 08:20:19;;;;;;;16.10;13.27;;;;;;;;;;5055496;28;20029;-55
2022/01/14 08:22:45;;;;;;;13.47;12.00;;;;;;;;;;5055380;28;20051;-53
2022/01/14 08:25:11;;;;;;;18.67;14.17;;;;;;;;;;5055187;28;20025;-52
2022/01/14 08:27:37;;;;;;;16.23;13.27;;;;;;;;;;5054943;28;20033;-52
2022/01/14 08:30:04;;;;;;;18.63;13.87;;;;;;;;;;5054716;28;20031;-52
2022/01/14 08:32:30;;;;;;;16.13;14.37;;;;;;;;;;5054836;28;20025;-53
2022/01/14 08:34:56;;;;;;;18.50;14.50;;;;;;;;;;5054903;28;20091;-54
2022/01/14 08:37:22;;;;;;;24.40;16.23;;;;;;;;;;5055074;28;20021;-54
2022/01/14 08:39:48;;;;;;;18.50;15.87;;;;;;;;;;5054262;28;20029;-53
2022/01/14 08:42:14;;;;;;;20.50;16.57;;;;;;;;;;5054647;28;20075;-52
2022/01/14 08:44:41;;;;;;;20.20;16.73;;;;;;;;;;5054626;28;20021;-54
2022/01/14 08:47:09;;;;;;;20.00;17.73;;;;;;;;;;5053275;28;20484;-53
2022/01/14 08:49:35;;;;;;;18.30;16.23;;;;;;;;;;5054383;28;20441;-52
2022/01/14 08:52:01;;;;;;;17.60;15.23;;;;;;;;;;5054881;28;20032;-51
2022/01/14 08:54:27;;;;;;;19.90;16.53;;;;;;;;;;5054993;28;20462;-54
2022/01/14 08:56:53;;;;;;;18.43;13.60;;;;;;;;;;5054453;28;20462;-53
2022/01/14 08:59:19;;;;;;;19.70;16.60;;;;;;;;;;5053687;28;20459;-54
2022/01/14 09:01:45;;;;;;;16.80;14.40;;;;;;;;;;5054482;28;20382;-54
2022/01/14 09:04:11;;;;;;;17.77;15.87;;;;;;;;;;5054877;28;20166;-53
2022/01/14 09:06:37;;;;;;;18.00;16.20;;;;;;;;;;5054527;28;20429;-52
2022/01/14 09:09:04;;;;;;;20.77;17.03;;;;;;;;;;5053806;28;20025;-51
2022/01/14 09:11:30;;;;;;;16.20;14.03;;;;;;;;;;5053816;28;20041;-54
2022/01/14 09:13:56;;;;;;;17.07;14.27;;;;;;;;;;5054169;28;20025;-51
2022/01/14 09:16:23;;;;;;;20.70;17.10;;;;;;;;;;5054079;28;20021;-51
2022/01/14 09:18:49;;;;;;;20.43;15.47;;;;;;;;;;5053698;28;20104;-53
2022/01/14 09:21:15;;;;;;;19.20;14.27;;;;;;;;;;5054360;28;20124;-51
2022/01/14 09:23:43;;;;;;;16.60;13.37;;;;;;;;;;5054251;28;20052;-52
2022/01/14 09:26:09;;;;;;;19.93;13.57;;;;;;;;;;5053213;28;20064;-52
2022/01/14 09:28:35;;;;;;;15.43;12.00;;;;;;;;;;5053272;28;20067;-52
2022/01/14 09:31:01;;;;;;;17.13;13.83;;;;;;;;;;5054410;28;20063;-52
2022/01/14 09:33:27;;;;;;;15.87;13.53;;;;;;;;;;5053895;28;20032;-52
2022/01/14 09:35:53;;;;;;;16.80;13.70;;;;;;;;;;5054049;28;20471;-53
2022/01/14 09:38:21;;;;;;;26.20;13.90;;;;;;;;;;5053212;28;20127;-54
2022/01/14 09:40:49;;;;;;;20.33;15.23;;;;;;;;;;5053431;28;20043;-54
2022/01/14 09:43:15;;;;;;;16.40;12.13;;;;;;;;;;5053412;28;20097;-54
2022/01/14 09:45:41;;;;;;;14.80;13.13;;;;;;;;;;5053939;28;20029;-55
2022/01/14 09:48:07;;;;;;;14.53;12.73;;;;;;;;;;5052917;28;20451;-53
2022/01/14 09:50:33;;;;;;;21.90;14.23;;;;;;;;;;5053625;28;20039;-53
2022/01/14 09:52:59;;;;;;;15.63;13.93;;;;;;;;;;5053144;28;20146;-54
2022/01/14 09:55:25;;;;;;;21.03;16.30;;;;;;;;;;5053328;28;20119;-53
2022/01/14 09:57:54;;;;;;;26.30;14.97;;;;;;;;;;5052464;28;20488;-51
2022/01/14 10:00:20;;;;;;;15.60;13.77;;;;;;;;;;5053399;28;20388;-55
2022/01/14 10:02:47;;;;;;;16.70;13.63;;;;;;;;;;5052973;28;20532;-53
2022/01/14 10:05:33;;;;;;;16.33;12.57;;;;;;;;;;5053359;28;20104;-52
2022/01/14 10:08:19;;;;;;;19.10;14.50;;;;;;;;;;5051927;28;20029;-54
2022/01/14 10:10:59;;;;;;;17.13;14.47;;;;;;;;;;5053297;28;20044;-52
2022/01/14 10:13:26;;;;;;;17.43;14.37;;;;;;;;;;5053227;28;20473;-54
2022/01/14 10:15:53;;;;;;;19.20;15.00;;;;;;;;;;5053268;28;20032;-55
2022/01/14 10:18:23;;;;;;;18.47;14.10;;;;;;;;;;5052465;28;20492;-53
2022/01/14 10:20:49;;;;;;;18.27;14.17;;;;;;;;;;5053044;28;20330;-55
2022/01/14 10:23:15;;;;;;;17.00;14.57;;;;;;;;;;5051995;28;20446;-52
2022/01/14 10:25:42;;;;;;;15.73;13.93;;;;;;;;;;5052969;28;20037;-54
2022/01/14 10:28:18;;;;;;;24.03;14.50;;;;;;;;;;5052267;28;20033;-54
2022/01/14 10:30:45;;;;;;;21.40;13.83;;;;;;;;;;5053328;28;20027;-54
2022/01/14 10:33:11;;;;;;;14.67;12.47;;;;;;;;;;5052444;28;20021;-53
2022/01/14 10:35:39;;;;;;;15.73;11.97;;;;;;;;;;5052436;28;20065;-55
2022/01/14 10:38:06;;;;;;;21.37;12.67;;;;;;;;;;5052277;28;20321;-53
2022/01/14 10:40:35;;;;;;;14.07;11.83;;;;;;;;;;5052711;28;20382;-53
2022/01/14 10:43:03;;;;;;;13.90;10.37;;;;;;;;;;5052357;28;20043;-55
2022/01/14 10:45:29;;;;;;;11.80;9.97;;;;;;;;;;5050554;28;20214;-52
2022/01/14 10:47:55;;;;;;;12.20;10.00;;;;;;;;;;5051404;28;20033;-55
2022/01/14 10:50:31;;;;;;;13.73;11.33;;;;;;;;;;5052766;28;20149;-56
2022/01/14 10:52:57;;;;;;;12.93;10.63;;;;;;;;;;5052540;28;20095;-54
2022/01/14 10:55:43;;;;;;;14.83;12.67;;;;;;;;;;5050383;28;20032;-53
2022/01/14 10:58:18;;;;;;;15.00;11.17;;;;;;;;;;5050916;28;20478;-55
2022/01/14 11:00:49;;;;;;;16.23;13.20;;;;;;;;;;5052460;28;20398;-54
2022/01/14 11:03:15;;;;;;;18.83;13.40;;;;;;;;;;5050989;28;20115;-52
2022/01/14 11:05:42;;;;;;;16.07;12.77;;;;;;;;;;5049507;28;20032;-53
2022/01/14 11:08:08;;;;;;;15.50;12.15;;;;;;;;;;5051748;28;20036;-55
2022/01/14 11:10:38;;;;;;;16.97;11.80;;;;;;;;;;5052216;28;20415;-56
2022/01/14 11:13:07;;;;;;;14.30;11.70;;;;;;;;;;5051964;28;20490;-57
2022/01/14 11:15:33;;;;;;;16.40;12.60;;;;;;;;;;5052349;28;20143;-56
2022/01/14 11:18:02;;;;;;;18.40;13.60;;;;;;;;;;5051604;28;20475;-57
2022/01/14 11:23:14;;;;;;;13.50;12.13;;;;;;;;;;5051909;28;20178;-57
2022/01/14 11:23:15;;;;;;;15.57;12.93;;;;;;;;;;5051539;28;20490;-57
2022/01/14 11:25:46;;;;;;;13.77;11.00;;;;;;;;;;5052220;28;20098;-57
2022/01/14 11:28:14;;;;;;;13.18;11.57;;;;;;;;;;5051297;28;20056;-57
2022/01/14 11:30:40;;;;;;;14.82;11.90;;;;;;;;;;5052254;28;20039;-57
2022/01/14 11:33:08;;;;;;;17.17;12.68;;;;;;;;;;5052327;28;20029;-57
2022/01/14 11:35:34;;;;;;;14.45;11.98;;;;;;;;;;5052817;28;20112;-56
2022/01/14 11:38:01;;;;;;;14.27;11.00;;;;;;;;;;5055413;28;20028;-55
2022/01/14 11:40:27;;;;;;;14.65;10.35;;;;;;;;;;5056360;28;20039;-57
2022/01/14 11:43:00;;;;;;;17.35;13.18;;;;;;;;;;5055920;28;20025;-55
2022/01/14 11:45:44;;;;;;;14.23;11.32;;;;;;;;;;5056039;28;20116;-56
2022/01/14 11:48:29;;;;;;;13.88;12.48;;;;;;;;;;5054992;28;20037;-55
2022/01/14 11:50:59;;;;;;;13.27;10.77;;;;;;;;;;5053085;28;20060;-55
2022/01/14 11:53:51;;;;;;;19.63;12.30;;;;;;;;;;5055732;28;20344;-56
2022/01/14 11:56:32;;;;;;;14.57;12.10;;;;;;;;;;5055112;28;20036;-57
2022/01/14 11:59:17;;;;;;;16.38;12.07;;;;;;;;;;5055224;28;20363;-55
2022/01/14 12:01:44;;;;;;;15.40;11.32;;;;;;;;;;5050601;28;20112;-55
2022/01/14 12:04:09;;;;;;;18.33;12.65;;;;;;;;;;5035727;28;20080;-56
2022/01/14 12:06:51;;;;;;;20.40;11.48;;;;;;;;;;5035736;28;20403;-51
2022/01/14 12:09:17;;;;;;;21.98;13.55;;;;;;;;;;5047496;28;20071;-54
2022/01/14 12:11:43;;;;;;;17.90;13.02;;;;;;;;;;5055714;28;20025;-56
2022/01/14 12:14:11;;;;;;;14.15;11.95;;;;;;;;;;5055204;28;20061;-55
2022/01/14 12:16:49;;;;;;;16.25;12.18;;;;;;;;;;5055520;28;20025;-51
2022/01/14 12:19:17;;;;;;;18.65;13.18;;;;;;;;;;5054588;28;20029;-56
2022/01/14 12:21:51;;;;;;;16.95;12.48;;;;;;;;;;5055564;28;20040;-55
2022/01/14 12:24:38;;;;;;;15.88;10.75;;;;;;;;;;5055092;28;20029;-53
2022/01/14 12:27:05;;;;;;;15.80;10.40;;;;;;;;;;5055458;28;20025;-55
2022/01/14 12:29:36;;;;;;;13.85;10.63;;;;;;;;;;5054784;28;20461;-56
2022/01/14 12:32:05;;;;;;;14.02;11.05;;;;;;;;;;5054957;28;20029;-52
2022/01/14 12:34:34;;;;;;;19.48;11.70;;;;;;;;;;5054610;28;20036;-54
2022/01/14 12:37:00;;;;;;;15.60;10.55;;;;;;;;;;5053256;28;20375;-56
2022/01/14 12:39:26;;;;;;;15.60;12.15;;;;;;;;;;5052660;28;20025;-56
2022/01/14 12:41:57;;;;;;;15.98;12.23;;;;;;;;;;5054148;28;20095;-53
2022/01/14 12:44:24;;;;;;;16.50;12.77;;;;;;;;;;5054731;28;20080;-55
2022/01/14 12:47:07;;;;;;;16.25;12.48;;;;;;;;;;5054491;28;20029;-56
2022/01/14 12:49:34;;;;;;;15.07;11.55;;;;;;;;;;5054012;28;20431;-55
2022/01/14 12:52:01;;;;;;;17.83;12.75;;;;;;;;;;5055258;28;20031;-54
2022/01/14 12:54:34;;;;;;;19.50;13.38;;;;;;;;;;5054683;28;20436;-52
2022/01/14 12:57:01;;;;;;;19.02;14.45;;;;;;;;;;5054527;28;20029;-56
2022/01/14 12:59:27;;;;;;;15.18;12.93;;;;;;;;;;5053787;28;20035;-56
2022/01/14 13:01:54;;;;;;;17.15;11.95;;;;;;;;;;5054293;28;20031;-55
2022/01/14 13:04:21;;;;;;;18.77;12.93;;;;;;;;;;5054348;28;20032;-56
2022/01/14 13:06:57;;;;;;;20.85;11.90;;;;;;;;;;5054634;28;20029;-53
2022/01/14 13:09:23;;;;;;;16.98;12.45;;;;;;;;;;5053683;28;20072;-54
2022/01/14 13:12:03;;;;;;;14.07;12.45;;;;;;;;;;5054304;28;20064;-56
2022/01/14 13:14:37;;;;;;;15.50;11.45;;;;;;;;;;5054117;28;20371;-55
2022/01/14 13:17:07;;;;;;;17.25;11.18;;;;;;;;;;5054556;28;20422;-52
2022/01/14 13:19:34;;;;;;;20.40;11.65;;;;;;;;;;5053476;28;20033;-53
2022/01/14 13:22:01;;;;;;;13.82;9.75;;;;;;;;;;5053902;28;20386;-52
2022/01/14 13:24:29;;;;;;;10.70;8.77;;;;;;;;;;5054193;28;20060;-55
2022/01/14 13:27:02;;;;;;;11.07;9.60;;;;;;;;;;5054345;28;20025;-54
2022/01/14 13:29:34;;;;;;;13.10;9.82;;;;;;;;;;5053441;28;20036;-54
2022/01/14 13:32:00;;;;;;;13.07;9.50;;;;;;;;;;5054020;28;20025;-54
2022/01/14 13:34:26;;;;;;;12.18;9.02;;;;;;;;;;5053585;28;20036;-53
2022/01/14 13:36:52;;;;;;;13.38;9.70;;;;;;;;;;5053988;28;20524;-55
2022/01/14 13:39:20;;;;;;;10.70;8.57;;;;;;;;;;5053168;28;20033;-53
2022/01/14 13:41:46;;;;;;;14.00;9.32;;;;;;;;;;5053856;28;20035;-54
2022/01/14 13:44:22;;;;;;;10.43;8.35;;;;;;;;;;5053439;28;20021;-54
2022/01/14 13:46:53;;;;;;;11.77;7.32;;;;;;;;;;5053552;28;20021;-53
2022/01/14 13:49:22;;;;;;;9.45;7.43;;;;;;;;;;5053210;28;20040;-51
2022/01/14 13:52:02;;;;;;;12.50;8.45;;;;;;;;;;5053741;28;20017;-51
2022/01/14 13:54:28;;;;;;;9.00;8.10;;;;;;;;;;5053591;28;20111;-50
2022/01/14 13:56:54;;;;;;;16.95;8.48;;;;;;;;;;5053387;28;20028;-52
2022/01/14 13:59:20;;;;;;;13.27;7.90;;;;;;;;;;5051013;28;20029;-53
2022/01/14 14:01:52;;;;;;;11.70;7.20;;;;;;;;;;5052885;28;20033;-52
2022/01/14 14:04:27;;;;;;;9.15;7.50;;;;;;;;;;5053490;28;20356;-54
2022/01/14 14:07:04;;;;;;;8.98;7.22;;;;;;;;;;5053553;28;20029;-53
2022/01/14 14:09:37;;;;;;;9.27;7.32;;;;;;;;;;5052483;28;20039;-53
2022/01/14 14:17:58;;;;;;;9.57;6.88;;;;;;;;;;5052829;28;20036;-54
2022/01/14 14:20:24;;;;;;;7.53;6.13;;;;;;;;;;5052963;28;20043;-53
2022/01/14 14:22:52;;;;;;;14.65;12.05;;;;;;;;;;5053318;28;20385;-54
2022/01/14 14:25:29;;;;;;;13.52;12.05;;;;;;;;;;5053107;28;20033;-54
2022/01/14 14:28:04;;;;;;;15.40;11.88;;;;;;;;;;5052532;28;20386;-54
2022/01/14 14:30:38;;;;;;;11.48;10.25;;;;;;;;;;5052990;28;20183;-55
2022/01/14 14:33:05;;;;;;;17.67;12.00;;;;;;;;;;5052527;28;20044;-55
2022/01/14 14:35:35;;;;;;;18.25;12.23;;;;;;;;;;5052463;28;20369;-55
2022/01/14 14:38:02;;;;;;;14.85;12.73;;;;;;;;;;5043671;28;20021;-56
2022/01/14 14:40:31;;;;;;;22.17;13.80;;;;;;;;;;5050795;28;20121;-55
2022/01/14 14:42:59;;;;;;;18.10;14.02;;;;;;;;;;5049906;28;20051;-55
2022/01/14 14:45:25;;;;;;;18.90;14.18;;;;;;;;;;5050448;28;20017;-54
2022/01/14 14:47:51;;;;;;;16.30;13.88;;;;;;;;;;5051585;28;20052;-58